TimeCDT,TemperatureF,Dew PointF,Humidity,Sea Level PressureIn,VisibilityMPH,Wind Direction,Wind SpeedMPH,Gust SpeedMPH,PrecipitationIn,Events,Conditions,WindDirDegrees,DateUTC
12:15 AM,66.0,64.6,95,29.95,5.0,Calm,Calm,-,N/A,,Scattered Clouds,0,2013-10-16 05:15:00
12:35 AM,66.2,64.9,96,29.95,5.0,Calm,Calm,-,N/A,,Clear,0,2013-10-16 05:35:00
12:55 AM,65.5,64.4,96,29.95,3.0,Calm,Calm,-,N/A,,Clear,0,2013-10-16 05:55:00
1:15 AM,65.3,63.9,95,29.95,5.0,Calm,Calm,-,N/A,,Clear,0,2013-10-16 06:15:00
1:35 AM,65.3,64.0,96,29.94,4.0,Calm,Calm,-,N/A,,Clear,0,2013-10-16 06:35:00
1:55 AM,66.0,64.8,96,29.94,5.0,Calm,Calm,-,N/A,,Clear,0,2013-10-16 06:55:00
2:15 AM,67.1,65.8,96,29.93,5.0,Calm,Calm,-,N/A,,Clear,0,2013-10-16 07:15:00
2:35 AM,67.5,66.4,96,29.93,5.0,Calm,Calm,-,N/A,,Clear,0,2013-10-16 07:35:00
2:55 AM,67.8,66.4,95,29.92,5.0,Calm,Calm,-,N/A,,Clear,0,2013-10-16 07:55:00
3:15 AM,68.0,66.7,96,29.91,5.0,Calm,Calm,-,N/A,,Clear,0,2013-10-16 08:15:00
3:35 AM,66.4,65.3,96,29.91,1.2,Calm,Calm,-,N/A,,Mist,0,2013-10-16 08:35:00
3:55 AM,65.7,64.2,95,29.91,3.0,Calm,Calm,-,N/A,,Clear,0,2013-10-16 08:55:00
4:15 AM,65.5,64.4,96,29.91,0.8,Calm,Calm,-,N/A,,Scattered Clouds,0,2013-10-16 09:15:00
4:35 AM,64.9,63.7,96,29.91,5.0,Calm,Calm,-,N/A,,Mostly Cloudy,0,2013-10-16 09:35:00
4:55 AM,64.9,63.9,96,29.92,0.5,Calm,Calm,-,N/A,Fog,Fog,0,2013-10-16 09:55:00
5:15 AM,64.6,63.5,96,29.92,0.2,Calm,Calm,-,N/A,Fog,Fog,0,2013-10-16 10:15:00
5:35 AM,64.8,63.7,96,29.93,0.2,Calm,Calm,-,N/A,Fog,Fog,0,2013-10-16 10:35:00
5:55 AM,64.8,63.7,96,29.93,1.2,Calm,Calm,-,N/A,,Overcast,0,2013-10-16 10:55:00
6:15 AM,64.2,63.0,96,29.93,0.5,Calm,Calm,-,N/A,Fog,Fog,0,2013-10-16 11:15:00
6:35 AM,63.5,62.6,97,29.94,0.5,Calm,Calm,-,N/A,Fog,Fog,0,2013-10-16 11:35:00
6:55 AM,63.9,62.8,96,29.95,0.5,Calm,Calm,-,N/A,Fog,Fog,0,2013-10-16 11:55:00
7:15 AM,63.7,62.6,96,29.96,0.2,Calm,Calm,-,N/A,Fog,Fog,0,2013-10-16 12:15:00
7:35 AM,63.7,62.6,96,29.96,0.2,Calm,Calm,-,N/A,Fog,Fog,0,2013-10-16 12:35:00
7:55 AM,65.1,64.0,96,29.96,0.2,Calm,Calm,-,N/A,Fog,Fog,0,2013-10-16 12:55:00
8:15 AM,66.6,65.5,96,29.97,0.2,Calm,Calm,-,N/A,Fog,Fog,0,2013-10-16 13:15:00
8:35 AM,68.4,67.3,96,29.97,0.2,Calm,Calm,-,N/A,Fog,Fog,0,2013-10-16 13:35:00
8:55 AM,70.9,70.0,97,29.97,5.0,Calm,Calm,-,N/A,,Mostly Cloudy,0,2013-10-16 13:55:00
9:15 AM,73.8,71.6,93,29.97,10.0,Calm,Calm,-,N/A,,Clear,0,2013-10-16 14:15:00
9:35 AM,76.1,71.2,85,29.98,10.0,SW,4.6,-,N/A,,Scattered Clouds,230,2013-10-16 14:35:00
9:55 AM,75.7,71.1,85,29.98,10.0,West,3.5,-,N/A,,Overcast,260,2013-10-16 14:55:00
10:15 AM,75.7,70.9,85,29.98,10.0,WSW,3.5,-,N/A,,Overcast,250,2013-10-16 15:15:00
10:35 AM,79.3,69.8,72,29.97,10.0,SW,3.5,-,N/A,,Scattered Clouds,230,2013-10-16 15:35:00
10:55 AM,79.7,69.6,71,29.96,10.0,West,6.9,-,N/A,,Scattered Clouds,260,2013-10-16 15:55:00
11:15 AM,80.6,70.3,71,29.96,10.0,Calm,Calm,-,N/A,,Scattered Clouds,0,2013-10-16 16:15:00
11:35 AM,79.9,69.3,70,29.96,10.0,West,5.8,-,N/A,,Overcast,280,2013-10-16 16:35:00
11:55 AM,81.3,69.3,67,29.96,10.0,NW,4.6,-,N/A,,Mostly Cloudy,310,2013-10-16 16:55:00
12:15 PM,81.9,68.9,65,29.96,10.0,West,4.6,-,N/A,,Scattered Clouds,270,2013-10-16 17:15:00
12:35 PM,82.9,68.4,61,29.95,10.0,West,10.4,-,N/A,,Mostly Cloudy,280,2013-10-16 17:35:00
12:55 PM,80.8,68.7,67,29.94,10.0,WNW,6.9,-,N/A,,Scattered Clouds,300,2013-10-16 17:55:00
1:15 PM,81.1,68.5,65,29.93,10.0,Calm,Calm,-,N/A,,Scattered Clouds,0,2013-10-16 18:15:00
1:35 PM,80.6,68.9,67,29.93,10.0,WNW,4.6,-,N/A,,Mostly Cloudy,300,2013-10-16 18:35:00
1:55 PM,80.8,68.7,67,29.92,10.0,West,3.5,-,N/A,,Mostly Cloudy,280,2013-10-16 18:55:00
2:15 PM,81.5,68.9,65,29.92,10.0,WNW,4.6,-,N/A,,Scattered Clouds,290,2013-10-16 19:15:00
2:35 PM,82.0,68.2,63,29.91,10.0,WSW,3.5,-,N/A,,Scattered Clouds,250,2013-10-16 19:35:00
2:55 PM,80.8,68.7,67,29.91,10.0,NW,5.8,-,N/A,,Mostly Cloudy,310,2013-10-16 19:55:00
3:15 PM,81.1,68.7,66,29.90,10.0,NNW,6.9,-,N/A,,Overcast,340,2013-10-16 20:15:00
3:35 PM,81.1,68.4,65,29.90,10.0,WNW,3.5,-,N/A,,Mostly Cloudy,290,2013-10-16 20:35:00
3:55 PM,81.7,68.9,65,29.90,10.0,Calm,Calm,-,N/A,,Mostly Cloudy,0,2013-10-16 20:55:00
4:15 PM,81.7,68.7,65,29.90,10.0,NW,4.6,-,N/A,,Mostly Cloudy,320,2013-10-16 21:15:00
4:35 PM,80.6,68.7,67,29.90,10.0,North,4.6,-,N/A,,Overcast,350,2013-10-16 21:35:00
4:55 PM,80.1,69.3,69,29.90,10.0,Calm,Calm,-,N/A,,Mostly Cloudy,0,2013-10-16 21:55:00
5:15 PM,78.8,69.8,74,29.89,10.0,North,3.5,-,N/A,,Overcast,10,2013-10-16 22:15:00
5:35 PM,78.3,70.9,78,29.89,10.0,Calm,Calm,-,N/A,,Overcast,0,2013-10-16 22:35:00
5:55 PM,74.8,69.3,83,29.90,10.0,NNW,6.9,-,N/A,,Overcast,330,2013-10-16 22:55:00
6:15 PM,73.4,68.0,83,29.91,10.0,NNW,8.1,-,N/A,,Overcast,340,2013-10-16 23:15:00
6:35 PM,72.3,67.6,85,29.92,10.0,North,6.9,-,N/A,,Overcast,350,2013-10-16 23:35:00
6:55 PM,71.8,67.5,86,29.93,10.0,NNW,6.9,-,N/A,,Overcast,340,2013-10-16 23:55:00
7:15 PM,71.1,67.3,88,29.93,10.0,NNW,8.1,-,N/A,,Overcast,340,2013-10-17 00:15:00
7:35 PM,70.7,66.6,87,29.93,10.0,North,4.6,-,N/A,,Overcast,350,2013-10-17 00:35:00
7:55 PM,70.2,66.4,88,29.94,10.0,North,5.8,-,N/A,,Overcast,360,2013-10-17 00:55:00
8:15 PM,70.0,66.4,88,29.95,10.0,NNW,6.9,-,N/A,,Overcast,330,2013-10-17 01:15:00
8:35 PM,69.8,66.6,89,29.95,10.0,NNW,4.6,-,N/A,,Light Drizzle,330,2013-10-17 01:35:00
8:55 PM,69.6,66.7,91,29.95,10.0,North,4.6,-,N/A,,Overcast,360,2013-10-17 01:55:00
9:15 PM,69.4,66.6,91,29.96,10.0,North,3.5,-,N/A,,Overcast,350,2013-10-17 02:15:00
9:35 PM,69.4,66.6,91,29.96,10.0,North,3.5,-,N/A,,Overcast,360,2013-10-17 02:35:00
9:55 PM,69.3,66.4,91,29.97,7.0,North,3.5,-,N/A,Rain,Light Rain,360,2013-10-17 02:55:00
10:15 PM,69.1,66.2,91,29.97,10.0,North,3.5,-,N/A,,Overcast,350,2013-10-17 03:15:00
10:35 PM,68.9,66.2,91,29.97,10.0,NNW,3.5,-,N/A,,Overcast,340,2013-10-17 03:35:00
10:55 PM,68.9,66.4,92,29.97,10.0,North,3.5,-,N/A,,Overcast,350,2013-10-17 03:55:00
11:15 PM,68.9,66.4,92,29.97,10.0,North,3.5,-,N/A,,Overcast,350,2013-10-17 04:15:00
11:35 PM,68.9,66.2,91,29.97,10.0,NNW,3.5,-,N/A,,Overcast,340,2013-10-17 04:35:00
11:55 PM,68.9,66.2,91,29.96,10.0,NNW,4.6,-,N/A,,Overcast,330,2013-10-17 04:55:00